< < Back
Terminal Aerodrome Forecast


Current Version              Previous Versions:   1  2  3  4  5  6  7  8  9  

Terminal Aerodrome Forecast

362
FTUS42 KILM 020200 AAA
TAFFLO
TAF AMD
KFLO 020203Z 0202/0224 03007KT 6SM -RA BKN006 OVC015
     FM020600 05003KT 4SM BR OVC006
      TEMPO 0208/0212 2SM BR OVC004
     FM021400 04006KT P6SM VCSH BKN016
     FM022000 04005KT P6SM SCT020 BKN120=

Latest METAR

683
SAUS70 KWBC 020556
MTRFLO
METAR KFLO 020553Z AUTO 02007KT 4SM BR OVC003 22/21 A3005 RMK AO2 SLP172
60003 T02170206 10244 20217 58005


USA.gov is the U.S. government's official web portal to all federal, state and local government web resources and services.